sensor_id;sensor_type;location;lat;lon;timestamp;pressure;altitude;pressure_sealevel;temperature;humidity
41703;BME280;861;48.808;9.006;2022-07-23T00:00:17;97081.75;;;25.41;54.69
41703;BME280;861;48.808;9.006;2022-07-23T00:02:45;97081.38;;;25.48;54.29
41703;BME280;861;48.808;9.006;2022-07-23T00:05:11;97083.31;;;25.27;55.20
41703;BME280;861;48.808;9.006;2022-07-23T00:07:38;97066.66;;;25.33;54.92
41703;BME280;861;48.808;9.006;2022-07-23T00:10:06;97074.84;;;25.36;55.30
41703;BME280;861;48.808;9.006;2022-07-23T00:12:33;97070.41;;;25.15;56.09
41703;BME280;861;48.808;9.006;2022-07-23T00:15:00;97075.31;;;25.20;55.64
41703;BME280;861;48.808;9.006;2022-07-23T00:17:26;97065.69;;;25.21;55.43
41703;BME280;861;48.808;9.006;2022-07-23T00:19:52;97073.88;;;25.25;55.59
41703;BME280;861;48.808;9.006;2022-07-23T00:22:20;97061.56;;;25.17;55.71
41703;BME280;861;48.808;9.006;2022-07-23T00:24:46;97059.34;;;25.06;55.95
41703;BME280;861;48.808;9.006;2022-07-23T00:27:12;97053.22;;;25.02;56.01
41703;BME280;861;48.808;9.006;2022-07-23T00:29:38;97055.22;;;25.02;56.38
41703;BME280;861;48.808;9.006;2022-07-23T00:32:05;97053.22;;;25.02;56.36
41703;BME280;861;48.808;9.006;2022-07-23T00:34:31;97047.06;;;24.98;56.14
41703;BME280;861;48.808;9.006;2022-07-23T00:36:58;97064.34;;;24.88;57.74
41703;BME280;861;48.808;9.006;2022-07-23T00:39:24;97062.31;;;24.88;56.97
41703;BME280;861;48.808;9.006;2022-07-23T00:41:52;97054.72;;;24.89;56.87
41703;BME280;861;48.808;9.006;2022-07-23T00:44:25;97031.47;;;24.77;57.39
41703;BME280;861;48.808;9.006;2022-07-23T00:46:57;97031.47;;;24.77;57.75
41703;BME280;861;48.808;9.006;2022-07-23T00:49:30;97050.03;;;24.95;57.26
41703;BME280;861;48.808;9.006;2022-07-23T00:52:01;97041.59;;;24.89;56.64
41703;BME280;861;48.808;9.006;2022-07-23T00:54:28;97039.16;;;24.68;57.72
41703;BME280;861;48.808;9.006;2022-07-23T00:56:55;97035.59;;;24.67;57.66
41703;BME280;861;48.808;9.006;2022-07-23T00:59:22;97041.31;;;24.49;57.98
41703;BME280;861;48.808;9.006;2022-07-23T01:01:48;97037.91;;;24.69;57.68
41703;BME280;861;48.808;9.006;2022-07-23T01:04:16;97040.72;;;24.45;58.52
41703;BME280;861;48.808;9.006;2022-07-23T01:06:45;97051.09;;;24.45;58.25
41703;BME280;861;48.808;9.006;2022-07-23T01:09:12;97048.44;;;24.50;58.22
41703;BME280;861;48.808;9.006;2022-07-23T01:11:38;97048.69;;;24.52;58.29
41703;BME280;861;48.808;9.006;2022-07-23T01:14:23;97008.94;;;24.37;58.81
41703;BME280;861;48.808;9.006;2022-07-23T01:16:49;97017.59;;;24.39;58.60
41703;BME280;861;48.808;9.006;2022-07-23T01:19:18;97019.84;;;24.26;59.68
41703;BME280;861;48.808;9.006;2022-07-23T01:21:51;97016.88;;;24.30;59.19
41703;BME280;861;48.808;9.006;2022-07-23T01:24:19;97003.38;;;24.37;59.42
41703;BME280;861;48.808;9.006;2022-07-23T01:26:48;97005.56;;;24.33;59.03
41703;BME280;861;48.808;9.006;2022-07-23T01:29:16;97003.19;;;24.41;59.26
41703;BME280;861;48.808;9.006;2022-07-23T01:31:43;97006.84;;;24.47;59.00
41703;BME280;861;48.808;9.006;2022-07-23T01:34:10;97003.09;;;24.50;58.66
41703;BME280;861;48.808;9.006;2022-07-23T01:36:37;96990.72;;;24.65;58.65
41703;BME280;861;48.808;9.006;2022-07-23T01:39:06;96994.41;;;24.71;59.03
41703;BME280;861;48.808;9.006;2022-07-23T01:41:34;97002.88;;;24.77;58.97
41703;BME280;861;48.808;9.006;2022-07-23T01:44:00;97005.28;;;24.69;60.33
41703;BME280;861;48.808;9.006;2022-07-23T01:46:27;97010.13;;;24.60;60.06
41703;BME280;861;48.808;9.006;2022-07-23T01:48:53;97004.00;;;24.70;59.83
41703;BME280;861;48.808;9.006;2022-07-23T01:51:20;96999.91;;;24.80;59.34
41703;BME280;861;48.808;9.006;2022-07-23T01:53:46;96994.13;;;24.69;58.94
41703;BME280;861;48.808;9.006;2022-07-23T01:56:12;96998.84;;;24.40;59.63
41703;BME280;861;48.808;9.006;2022-07-23T01:58:40;96987.41;;;24.23;59.99
41703;BME280;861;48.808;9.006;2022-07-23T02:01:08;96993.97;;;24.11;59.67
41703;BME280;861;48.808;9.006;2022-07-23T02:03:36;97043.84;;;24.00;60.69
41703;BME280;861;48.808;9.006;2022-07-23T02:06:04;97056.22;;;23.99;61.97
41703;BME280;861;48.808;9.006;2022-07-23T02:08:31;97056.47;;;23.77;61.89
41703;BME280;861;48.808;9.006;2022-07-23T02:10:59;97052.38;;;23.87;61.71
41703;BME280;861;48.808;9.006;2022-07-23T02:13:26;97041.69;;;23.95;60.63
41703;BME280;861;48.808;9.006;2022-07-23T02:20:13;97052.63;;;24.07;61.08
41703;BME280;861;48.808;9.006;2022-07-23T02:22:40;97048.41;;;24.12;61.36
41703;BME280;861;48.808;9.006;2022-07-23T02:25:08;97052.53;;;24.17;60.24
41703;BME280;861;48.808;9.006;2022-07-23T02:27:36;97055.56;;;24.04;61.12
41703;BME280;861;48.808;9.006;2022-07-23T02:30:06;97069.06;;;23.96;61.16
41703;BME280;861;48.808;9.006;2022-07-23T02:32:34;97084.44;;;24.06;60.79
41703;BME280;861;48.808;9.006;2022-07-23T02:35:03;97092.78;;;24.06;61.75
41703;BME280;861;48.808;9.006;2022-07-23T02:37:30;97089.47;;;23.93;60.78
41703;BME280;861;48.808;9.006;2022-07-23T02:39:56;97095.19;;;23.90;61.23
41703;BME280;861;48.808;9.006;2022-07-23T02:42:22;97098.31;;;23.83;60.92
41703;BME280;861;48.808;9.006;2022-07-23T02:44:51;97102.88;;;23.62;61.30
41703;BME280;861;48.808;9.006;2022-07-23T02:47:18;97099.81;;;23.60;60.84
41703;BME280;861;48.808;9.006;2022-07-23T02:49:45;97103.41;;;23.52;61.36
41703;BME280;861;48.808;9.006;2022-07-23T02:52:12;97100.50;;;23.46;62.13
41703;BME280;861;48.808;9.006;2022-07-23T02:54:39;97116.09;;;23.44;62.21
41703;BME280;861;48.808;9.006;2022-07-23T02:57:07;97113.94;;;23.48;61.97
41703;BME280;861;48.808;9.006;2022-07-23T02:59:34;97121.19;;;23.45;61.90
41703;BME280;861;48.808;9.006;2022-07-23T03:02:02;97117.25;;;23.70;61.57
41703;BME280;861;48.808;9.006;2022-07-23T03:04:29;97120.03;;;23.70;62.16
41703;BME280;861;48.808;9.006;2022-07-23T03:06:57;97119.72;;;23.68;62.15
41703;BME280;861;48.808;9.006;2022-07-23T03:09:24;97130.47;;;23.75;61.89
41703;BME280;861;48.808;9.006;2022-07-23T03:11:51;97121.94;;;23.87;61.97
41703;BME280;861;48.808;9.006;2022-07-23T03:14:17;97121.19;;;23.87;61.74
41703;BME280;861;48.808;9.006;2022-07-23T03:16:43;97128.88;;;23.92;61.86
41703;BME280;861;48.808;9.006;2022-07-23T03:19:09;97121.13;;;23.96;61.33
41703;BME280;861;48.808;9.006;2022-07-23T03:21:36;97122.72;;;23.88;61.64
41703;BME280;861;48.808;9.006;2022-07-23T03:24:08;97111.78;;;23.75;62.08
41703;BME280;861;48.808;9.006;2022-07-23T03:26:36;97110.75;;;23.73;62.51
41703;BME280;861;48.808;9.006;2022-07-23T03:29:03;97108.84;;;23.79;62.35
41703;BME280;861;48.808;9.006;2022-07-23T03:31:30;97115.63;;;23.78;62.60
41703;BME280;861;48.808;9.006;2022-07-23T03:33:57;97127.22;;;23.85;62.30
41703;BME280;861;48.808;9.006;2022-07-23T03:36:24;97122.28;;;23.80;63.34
41703;BME280;861;48.808;9.006;2022-07-23T03:38:52;97124.13;;;23.83;62.70
41703;BME280;861;48.808;9.006;2022-07-23T03:41:20;97124.44;;;23.85;62.72
41703;BME280;861;48.808;9.006;2022-07-23T03:43:46;97121.72;;;23.67;62.76
41703;BME280;861;48.808;9.006;2022-07-23T03:46:13;97116.94;;;23.68;62.72
41703;BME280;861;48.808;9.006;2022-07-23T03:48:39;97120.09;;;23.84;63.20
41703;BME280;861;48.808;9.006;2022-07-23T03:51:05;97118.41;;;23.87;62.90
41703;BME280;861;48.808;9.006;2022-07-23T03:53:32;97119.16;;;23.87;62.06
41703;BME280;861;48.808;9.006;2022-07-23T03:55:58;97126.09;;;23.92;62.20
41703;BME280;861;48.808;9.006;2022-07-23T03:58:24;97125.59;;;23.70;62.49
41703;BME280;861;48.808;9.006;2022-07-23T04:00:51;97130.31;;;23.46;63.61
41703;BME280;861;48.808;9.006;2022-07-23T04:03:18;97123.38;;;23.41;64.67
41703;BME280;861;48.808;9.006;2022-07-23T04:05:45;97123.22;;;23.36;64.29
41703;BME280;861;48.808;9.006;2022-07-23T04:08:12;97127.47;;;23.55;64.15
41703;BME280;861;48.808;9.006;2022-07-23T04:10:39;97125.38;;;23.41;64.10
41703;BME280;861;48.808;9.006;2022-07-23T04:13:06;97131.59;;;23.27;64.50
41703;BME280;861;48.808;9.006;2022-07-23T04:15:33;97128.50;;;23.07;65.72
41703;BME280;861;48.808;9.006;2022-07-23T04:18:01;97126.50;;;23.16;65.05
41703;BME280;861;48.808;9.006;2022-07-23T04:20:28;97133.16;;;23.01;66.07
41703;BME280;861;48.808;9.006;2022-07-23T04:22:55;97118.81;;;23.02;65.90
41703;BME280;861;48.808;9.006;2022-07-23T04:25:23;97122.78;;;23.01;65.35
41703;BME280;861;48.808;9.006;2022-07-23T04:27:50;97113.06;;;23.15;65.11
41703;BME280;861;48.808;9.006;2022-07-23T04:30:17;97119.09;;;23.04;65.60
41703;BME280;861;48.808;9.006;2022-07-23T04:32:45;97119.56;;;23.03;65.20
41703;BME280;861;48.808;9.006;2022-07-23T04:35:12;97126.50;;;23.16;65.07
41703;BME280;861;48.808;9.006;2022-07-23T04:37:40;97123.25;;;23.27;64.90
41703;BME280;861;48.808;9.006;2022-07-23T04:40:08;97130.19;;;23.31;64.29
41703;BME280;861;48.808;9.006;2022-07-23T04:42:38;97128.47;;;23.34;64.33
41703;BME280;861;48.808;9.006;2022-07-23T04:45:07;97125.22;;;23.44;64.42
41703;BME280;861;48.808;9.006;2022-07-23T04:47:36;97130.78;;;23.44;63.99
41703;BME280;861;48.808;9.006;2022-07-23T04:50:04;97132.91;;;23.49;64.22
41703;BME280;861;48.808;9.006;2022-07-23T04:52:31;97140.16;;;23.47;64.51
41703;BME280;861;48.808;9.006;2022-07-23T04:54:58;97141.09;;;23.44;64.53
41703;BME280;861;48.808;9.006;2022-07-23T04:57:24;97143.72;;;23.47;64.17
41703;BME280;861;48.808;9.006;2022-07-23T04:59:50;97148.16;;;23.63;63.76
41703;BME280;861;48.808;9.006;2022-07-23T05:02:17;97140.59;;;23.63;63.86
41703;BME280;861;48.808;9.006;2022-07-23T05:04:43;97139.91;;;23.77;63.65
41703;BME280;861;48.808;9.006;2022-07-23T05:07:09;97153.22;;;23.73;65.11
41703;BME280;861;48.808;9.006;2022-07-23T05:09:35;97158.38;;;23.57;65.21
41703;BME280;861;48.808;9.006;2022-07-23T05:12:01;97156.66;;;23.68;64.63
41703;BME280;861;48.808;9.006;2022-07-23T05:14:28;97151.25;;;23.56;64.23
41703;BME280;861;48.808;9.006;2022-07-23T05:16:54;97151.75;;;23.45;64.50
41703;BME280;861;48.808;9.006;2022-07-23T05:19:21;97142.91;;;23.65;64.74
41703;BME280;861;48.808;9.006;2022-07-23T05:21:48;97143.81;;;23.71;64.73
41703;BME280;861;48.808;9.006;2022-07-23T05:24:14;97152.72;;;23.75;64.34
41703;BME280;861;48.808;9.006;2022-07-23T05:26:40;97164.25;;;23.59;65.26
41703;BME280;861;48.808;9.006;2022-07-23T05:29:06;97158.59;;;23.77;64.12
41703;BME280;861;48.808;9.006;2022-07-23T05:31:32;97164.75;;;23.90;63.93
41703;BME280;861;48.808;9.006;2022-07-23T05:33:58;97170.94;;;23.85;63.85
41703;BME280;861;48.808;9.006;2022-07-23T05:36:25;97169.25;;;23.78;63.34
41703;BME280;861;48.808;9.006;2022-07-23T05:38:51;97179.50;;;23.72;63.34
41703;BME280;861;48.808;9.006;2022-07-23T05:41:17;97179.66;;;23.69;64.00
41703;BME280;861;48.808;9.006;2022-07-23T05:43:43;97184.00;;;23.70;63.45
41703;BME280;861;48.808;9.006;2022-07-23T05:46:09;97184.88;;;23.76;63.30
41703;BME280;861;48.808;9.006;2022-07-23T05:48:35;97190.31;;;23.70;63.33
41703;BME280;861;48.808;9.006;2022-07-23T05:51:02;97202.44;;;24.00;63.60
41703;BME280;861;48.808;9.006;2022-07-23T05:53:32;97201.78;;;24.14;64.86
41703;BME280;861;48.808;9.006;2022-07-23T05:55:59;97207.38;;;23.96;63.62
41703;BME280;861;48.808;9.006;2022-07-23T05:58:25;97212.97;;;23.78;63.21
41703;BME280;861;48.808;9.006;2022-07-23T06:00:51;97216.59;;;24.20;62.10
41703;BME280;861;48.808;9.006;2022-07-23T06:03:17;97213.06;;;24.10;63.20
41703;BME280;861;48.808;9.006;2022-07-23T06:05:44;97207.38;;;23.96;62.79
41703;BME280;861;48.808;9.006;2022-07-23T06:08:10;97196.13;;;23.90;62.09
41703;BME280;861;48.808;9.006;2022-07-23T06:10:36;97189.06;;;23.71;62.99
41703;BME280;861;48.808;9.006;2022-07-23T06:13:02;97179.81;;;23.65;64.12
41703;BME280;861;48.808;9.006;2022-07-23T06:15:29;97176.41;;;23.70;64.14
41703;BME280;861;48.808;9.006;2022-07-23T06:17:56;97175.56;;;23.88;63.45
41703;BME280;861;48.808;9.006;2022-07-23T06:20:22;97189.34;;;24.24;61.18
41703;BME280;861;48.808;9.006;2022-07-23T06:22:48;97198.59;;;24.54;59.74
41703;BME280;861;48.808;9.006;2022-07-23T06:25:14;97196.97;;;24.47;59.89
41703;BME280;861;48.808;9.006;2022-07-23T06:27:42;97196.72;;;24.36;61.26
41703;BME280;861;48.808;9.006;2022-07-23T06:30:09;97196.41;;;24.34;62.18
41703;BME280;861;48.808;9.006;2022-07-23T06:32:36;97205.00;;;24.45;62.44
41703;BME280;861;48.808;9.006;2022-07-23T06:35:02;97211.00;;;24.76;59.97
41703;BME280;861;48.808;9.006;2022-07-23T06:37:29;97208.16;;;24.85;60.77
41703;BME280;861;48.808;9.006;2022-07-23T06:39:55;97218.72;;;24.81;60.72
41703;BME280;861;48.808;9.006;2022-07-23T06:42:21;97229.66;;;24.61;62.10
41703;BME280;861;48.808;9.006;2022-07-23T06:44:47;97220.50;;;24.70;59.84
41703;BME280;861;48.808;9.006;2022-07-23T06:47:13;97232.75;;;24.31;61.34
41703;BME280;861;48.808;9.006;2022-07-23T06:49:40;97255.75;;;24.40;61.31
41703;BME280;861;48.808;9.006;2022-07-23T06:52:07;97251.47;;;24.30;61.31
41703;BME280;861;48.808;9.006;2022-07-23T06:54:35;97252.16;;;24.16;62.04
41703;BME280;861;48.808;9.006;2022-07-23T06:57:01;97250.47;;;24.09;61.70
41703;BME280;861;48.808;9.006;2022-07-23T06:59:28;97243.84;;;24.40;59.80
41703;BME280;861;48.808;9.006;2022-07-23T07:01:54;97244.50;;;24.35;60.10
41703;BME280;861;48.808;9.006;2022-07-23T07:04:20;97252.78;;;24.11;61.88
41703;BME280;861;48.808;9.006;2022-07-23T07:06:46;97247.88;;;24.06;61.82
41703;BME280;861;48.808;9.006;2022-07-23T07:09:13;97225.50;;;23.82;62.41
41703;BME280;861;48.808;9.006;2022-07-23T07:11:39;97216.75;;;23.57;64.74
41703;BME280;861;48.808;9.006;2022-07-23T07:14:05;97213.22;;;23.47;66.85
41703;BME280;861;48.808;9.006;2022-07-23T07:16:32;97235.28;;;23.60;68.01
41703;BME280;861;48.808;9.006;2022-07-23T07:18:58;97240.09;;;23.32;70.20
41703;BME280;861;48.808;9.006;2022-07-23T07:21:24;97242.41;;;23.34;69.49
41703;BME280;861;48.808;9.006;2022-07-23T07:23:50;97253.66;;;23.21;71.97
41703;BME280;861;48.808;9.006;2022-07-23T07:26:16;97251.50;;;23.07;71.97
41703;BME280;861;48.808;9.006;2022-07-23T07:28:43;97245.63;;;22.96;72.92
41703;BME280;861;48.808;9.006;2022-07-23T07:31:09;97240.09;;;23.05;73.79
41703;BME280;861;48.808;9.006;2022-07-23T07:33:35;97252.59;;;23.19;73.82
41703;BME280;861;48.808;9.006;2022-07-23T07:36:01;97253.53;;;23.52;72.05
41703;BME280;861;48.808;9.006;2022-07-23T07:38:27;97266.75;;;23.75;71.19
41703;BME280;861;48.808;9.006;2022-07-23T07:40:53;97270.00;;;23.73;71.73
41703;BME280;861;48.808;9.006;2022-07-23T07:43:19;97272.03;;;23.82;70.20
41703;BME280;861;48.808;9.006;2022-07-23T07:45:47;97291.03;;;23.65;71.04
41703;BME280;861;48.808;9.006;2022-07-23T07:48:13;97289.19;;;23.62;71.86
41703;BME280;861;48.808;9.006;2022-07-23T07:50:39;97294.28;;;23.73;71.64
41703;BME280;861;48.808;9.006;2022-07-23T07:53:05;97296.13;;;23.76;70.91
41703;BME280;861;48.808;9.006;2022-07-23T07:55:31;97293.97;;;23.80;72.06
41703;BME280;861;48.808;9.006;2022-07-23T07:57:58;97288.41;;;23.98;70.07
41703;BME280;861;48.808;9.006;2022-07-23T08:00:24;97282.47;;;24.14;70.79
41703;BME280;861;48.808;9.006;2022-07-23T08:02:54;97283.38;;;24.20;69.86
41703;BME280;861;48.808;9.006;2022-07-23T08:05:25;97287.50;;;24.34;69.20
41703;BME280;861;48.808;9.006;2022-07-23T08:07:54;97282.44;;;24.23;68.82
41703;BME280;861;48.808;9.006;2022-07-23T08:10:23;97280.59;;;24.11;69.05
41703;BME280;861;48.808;9.006;2022-07-23T08:12:55;97288.31;;;24.25;70.40
41703;BME280;861;48.808;9.006;2022-07-23T08:15:26;97287.84;;;24.59;67.25
41703;BME280;861;48.808;9.006;2022-07-23T08:17:56;97289.72;;;24.86;67.02
41703;BME280;861;48.808;9.006;2022-07-23T08:20:25;97291.94;;;25.05;67.82
41703;BME280;861;48.808;9.006;2022-07-23T08:23:07;97294.97;;;25.16;66.31
41703;BME280;861;48.808;9.006;2022-07-23T08:25:41;97291.63;;;25.27;66.08
41703;BME280;861;48.808;9.006;2022-07-23T08:28:13;97287.06;;;25.38;65.07
41703;BME280;861;48.808;9.006;2022-07-23T08:30:43;97277.97;;;25.52;62.73
41703;BME280;861;48.808;9.006;2022-07-23T08:33:16;97286.06;;;25.65;63.52
41703;BME280;861;48.808;9.006;2022-07-23T08:35:48;97281.50;;;25.53;63.66
41703;BME280;861;48.808;9.006;2022-07-23T08:38:20;97291.25;;;25.58;63.71
41703;BME280;861;48.808;9.006;2022-07-23T08:40:54;97280.09;;;25.72;61.28
41703;BME280;861;48.808;9.006;2022-07-23T08:43:28;97285.31;;;26.23;58.66
41703;BME280;861;48.808;9.006;2022-07-23T08:46:00;97292.41;;;26.38;59.47
41703;BME280;861;48.808;9.006;2022-07-23T08:48:33;97287.81;;;26.35;60.77
41703;BME280;861;48.808;9.006;2022-07-23T08:51:04;97287.09;;;26.55;58.82
41703;BME280;861;48.808;9.006;2022-07-23T08:53:34;97288.03;;;26.66;58.73
41703;BME280;861;48.808;9.006;2022-07-23T08:56:05;97278.16;;;26.85;59.56
41703;BME280;861;48.808;9.006;2022-07-23T08:58:31;97283.03;;;26.70;57.46
41703;BME280;861;48.808;9.006;2022-07-23T09:01:00;97290.56;;;26.50;57.33
41703;BME280;861;48.808;9.006;2022-07-23T09:03:35;97285.59;;;26.39;59.49
41703;BME280;861;48.808;9.006;2022-07-23T09:06:03;97293.63;;;26.66;60.48
41703;BME280;861;48.808;9.006;2022-07-23T09:08:43;97289.97;;;26.75;59.71
41703;BME280;861;48.808;9.006;2022-07-23T09:11:17;97297.22;;;26.67;60.95
41703;BME280;861;48.808;9.006;2022-07-23T09:13:50;97293.94;;;26.68;57.13
41703;BME280;861;48.808;9.006;2022-07-23T09:16:29;97297.69;;;26.65;56.90
41703;BME280;861;48.808;9.006;2022-07-23T09:19:05;97293.78;;;26.77;57.00
41703;BME280;861;48.808;9.006;2022-07-23T09:21:39;97293.22;;;27.08;55.15
41703;BME280;861;48.808;9.006;2022-07-23T09:24:12;97289.81;;;27.39;53.84
41703;BME280;861;48.808;9.006;2022-07-23T09:26:48;97296.78;;;27.09;53.71
41703;BME280;861;48.808;9.006;2022-07-23T09:29:24;97286.84;;;26.87;54.52
41703;BME280;861;48.808;9.006;2022-07-23T09:31:54;97280.44;;;26.67;56.14
41703;BME280;861;48.808;9.006;2022-07-23T09:34:27;97289.22;;;26.94;55.82
41703;BME280;861;48.808;9.006;2022-07-23T09:37:16;97279.94;;;27.43;54.10
41703;BME280;861;48.808;9.006;2022-07-23T09:39:46;97294.41;;;27.62;52.88
41703;BME280;861;48.808;9.006;2022-07-23T09:42:25;97282.31;;;27.30;54.76
41703;BME280;861;48.808;9.006;2022-07-23T09:44:56;97281.56;;;27.75;54.01
41703;BME280;861;48.808;9.006;2022-07-23T09:47:30;97284.78;;;27.88;52.01
41703;BME280;861;48.808;9.006;2022-07-23T09:50:10;97283.50;;;27.89;54.26
41703;BME280;861;48.808;9.006;2022-07-23T09:52:49;97273.25;;;28.06;53.38
41703;BME280;861;48.808;9.006;2022-07-23T09:55:18;97273.09;;;28.21;51.45
41703;BME280;861;48.808;9.006;2022-07-23T09:57:47;97273.16;;;28.26;52.86
41703;BME280;861;48.808;9.006;2022-07-23T10:00:19;97270.06;;;28.56;54.59
41703;BME280;861;48.808;9.006;2022-07-23T10:02:47;97271.25;;;28.80;52.23
41703;BME280;861;48.808;9.006;2022-07-23T10:05:16;97280.81;;;29.05;50.25
41703;BME280;861;48.808;9.006;2022-07-23T10:07:45;97278.38;;;29.23;47.65
41703;BME280;861;48.808;9.006;2022-07-23T10:10:16;97284.63;;;29.02;50.57
41703;BME280;861;48.808;9.006;2022-07-23T10:12:47;97284.75;;;29.18;48.77
41703;BME280;861;48.808;9.006;2022-07-23T10:15:18;97277.00;;;29.02;49.90
41703;BME280;861;48.808;9.006;2022-07-23T10:17:45;97276.28;;;29.13;51.14
41703;BME280;861;48.808;9.006;2022-07-23T10:20:12;97278.78;;;29.05;49.43
41703;BME280;861;48.808;9.006;2022-07-23T10:26:13;97274.28;;;29.19;49.12
41703;BME280;861;48.808;9.006;2022-07-23T10:32:37;97268.25;;;29.37;48.16
41703;BME280;861;48.808;9.006;2022-07-23T10:38:33;97268.31;;;29.59;46.75
41703;BME280;861;48.808;9.006;2022-07-23T10:41:14;97280.84;;;29.69;45.69
41703;BME280;861;48.808;9.006;2022-07-23T10:44:21;97277.06;;;29.77;44.69
41703;BME280;861;48.808;9.006;2022-07-23T10:47:05;97280.69;;;30.00;48.00
41703;BME280;861;48.808;9.006;2022-07-23T10:49:46;97273.03;;;30.23;45.32
41703;BME280;861;48.808;9.006;2022-07-23T10:52:27;97279.69;;;30.36;44.17
41703;BME280;861;48.808;9.006;2022-07-23T10:57:50;97279.16;;;30.76;42.60
41703;BME280;861;48.808;9.006;2022-07-23T11:00:23;97268.09;;;31.00;42.52
41703;BME280;861;48.808;9.006;2022-07-23T11:02:54;97270.59;;;31.20;41.25
41703;BME280;861;48.808;9.006;2022-07-23T11:05:25;97267.50;;;31.29;44.64
41703;BME280;861;48.808;9.006;2022-07-23T11:10:50;97265.06;;;31.61;43.33
41703;BME280;861;48.808;9.006;2022-07-23T11:13:35;97267.22;;;31.39;42.38
41703;BME280;861;48.808;9.006;2022-07-23T11:16:07;97264.44;;;31.27;42.13
41703;BME280;861;48.808;9.006;2022-07-23T11:24:09;97269.31;;;31.21;42.13
41703;BME280;861;48.808;9.006;2022-07-23T11:26:43;97262.63;;;31.36;42.43
41703;BME280;861;48.808;9.006;2022-07-23T11:32:27;97269.94;;;30.81;45.85
41703;BME280;861;48.808;9.006;2022-07-23T11:34:56;97264.03;;;30.96;43.73
41703;BME280;861;48.808;9.006;2022-07-23T11:37:40;97257.53;;;31.17;44.97
41703;BME280;861;48.808;9.006;2022-07-23T11:40:16;97255.44;;;31.40;42.47
41703;BME280;861;48.808;9.006;2022-07-23T11:42:58;97254.78;;;31.06;43.09
41703;BME280;861;48.808;9.006;2022-07-23T11:45:47;97261.44;;;31.09;42.04
41703;BME280;861;48.808;9.006;2022-07-23T11:48:30;97257.34;;;31.04;43.65
41703;BME280;861;48.808;9.006;2022-07-23T11:50:58;97265.03;;;31.04;42.72
41703;BME280;861;48.808;9.006;2022-07-23T11:53:32;97266.63;;;30.83;45.17
41703;BME280;861;48.808;9.006;2022-07-23T11:56:09;97259.44;;;30.87;44.75
41703;BME280;861;48.808;9.006;2022-07-23T11:58:54;97257.03;;;31.19;43.58
41703;BME280;861;48.808;9.006;2022-07-23T12:01:21;97257.06;;;31.08;44.86
41703;BME280;861;48.808;9.006;2022-07-23T12:03:51;97254.78;;;31.06;45.60
41703;BME280;861;48.808;9.006;2022-07-23T12:06:17;97245.13;;;30.91;43.16
41703;BME280;861;48.808;9.006;2022-07-23T12:08:44;97249.97;;;30.90;44.00
41703;BME280;861;48.808;9.006;2022-07-23T12:11:12;97246.63;;;30.92;44.25
41703;BME280;861;48.808;9.006;2022-07-23T12:13:39;97247.66;;;30.94;43.86
41703;BME280;861;48.808;9.006;2022-07-23T12:16:06;97243.38;;;30.55;44.52
41703;BME280;861;48.808;9.006;2022-07-23T12:18:32;97256.66;;;30.76;45.26
41703;BME280;861;48.808;9.006;2022-07-23T12:21:05;97257.16;;;30.80;44.53
41703;BME280;861;48.808;9.006;2022-07-23T12:23:32;97246.06;;;31.04;45.62
41703;BME280;861;48.808;9.006;2022-07-23T12:26:03;97249.28;;;31.42;45.82
41703;BME280;861;48.808;9.006;2022-07-23T12:28:33;97252.97;;;31.72;43.66
41703;BME280;861;48.808;9.006;2022-07-23T12:31:00;97248.03;;;31.83;41.64
41703;BME280;861;48.808;9.006;2022-07-23T12:33:38;97240.31;;;31.89;42.32
41703;BME280;861;48.808;9.006;2022-07-23T12:36:10;97241.69;;;32.12;41.72
41703;BME280;861;48.808;9.006;2022-07-23T12:38:47;97236.72;;;32.24;43.58
41703;BME280;861;48.808;9.006;2022-07-23T12:41:15;97240.09;;;32.17;42.81
41703;BME280;861;48.808;9.006;2022-07-23T12:43:46;97246.19;;;31.91;42.98
41703;BME280;861;48.808;9.006;2022-07-23T12:46:20;97249.38;;;31.71;44.87
41703;BME280;861;48.808;9.006;2022-07-23T12:48:51;97258.06;;;31.73;42.21
41703;BME280;861;48.808;9.006;2022-07-23T12:51:22;97246.81;;;31.73;41.07
41703;BME280;861;48.808;9.006;2022-07-23T12:54:09;97253.44;;;31.24;42.76
41703;BME280;861;48.808;9.006;2022-07-23T12:56:40;97260.47;;;30.84;44.22
41703;BME280;861;48.808;9.006;2022-07-23T12:59:14;97257.13;;;30.91;43.72
41703;BME280;861;48.808;9.006;2022-07-23T13:01:45;97257.44;;;30.82;42.84
41703;BME280;861;48.808;9.006;2022-07-23T13:04:23;97264.31;;;30.70;47.02
41703;BME280;861;48.808;9.006;2022-07-23T13:06:58;97259.66;;;31.00;42.92
41703;BME280;861;48.808;9.006;2022-07-23T13:09:33;97270.47;;;30.85;43.37
41703;BME280;861;48.808;9.006;2022-07-23T13:12:00;97255.84;;;30.92;45.08
41703;BME280;861;48.808;9.006;2022-07-23T13:14:28;97261.19;;;31.07;44.00
41703;BME280;861;48.808;9.006;2022-07-23T13:16:56;97254.47;;;31.15;41.96
41703;BME280;861;48.808;9.006;2022-07-23T13:19:22;97250.63;;;31.24;43.28
41703;BME280;861;48.808;9.006;2022-07-23T13:21:49;97263.38;;;31.42;42.38
41703;BME280;861;48.808;9.006;2022-07-23T13:24:16;97255.91;;;31.50;41.69
41703;BME280;861;48.808;9.006;2022-07-23T13:26:45;97268.03;;;31.80;44.95
41703;BME280;861;48.808;9.006;2022-07-23T13:29:12;97255.94;;;32.25;42.24
41703;BME280;861;48.808;9.006;2022-07-23T13:31:39;97242.19;;;32.46;41.67
41703;BME280;861;48.808;9.006;2022-07-23T13:34:07;97247.13;;;32.64;40.36
41703;BME280;861;48.808;9.006;2022-07-23T13:36:35;97245.31;;;32.66;39.22
41703;BME280;861;48.808;9.006;2022-07-23T13:39:04;97248.38;;;32.68;41.74
41703;BME280;861;48.808;9.006;2022-07-23T13:41:33;97244.50;;;32.96;39.32
41703;BME280;861;48.808;9.006;2022-07-23T13:44:00;97245.03;;;32.94;40.89
41703;BME280;861;48.808;9.006;2022-07-23T13:46:26;97233.72;;;33.18;38.76
41703;BME280;861;48.808;9.006;2022-07-23T13:48:52;97237.69;;;33.10;38.07
41703;BME280;861;48.808;9.006;2022-07-23T13:51:18;97233.75;;;32.94;39.26
41703;BME280;861;48.808;9.006;2022-07-23T13:53:46;97232.94;;;32.99;39.02
41703;BME280;861;48.808;9.006;2022-07-23T13:56:12;97232.28;;;33.12;37.14
41703;BME280;861;48.808;9.006;2022-07-23T13:58:39;97229.59;;;33.19;37.35
41703;BME280;861;48.808;9.006;2022-07-23T14:01:06;97241.97;;;33.35;37.14